Worthington, MO (63567)

4:54 AM CDT on July 28, 2016 (GMT -0500)
MOComAgNet | | Change Station

Elev 1059 ft 40.47 °N, 93.00 °W | Updated 29 minutes ago

Partly Cloudy
Partly Cloudy
69 °F
Feels Like 69 °F
N
0
Wind Variable Wind from North
Gusts 0.0 mph

Today
High -- | Low -- °F
--% Chance of Precip.
Yesterday
High -- | Low -- °F
Precip. -- in
Pressure 29.92 in
Visibility 10.0 miles
Clouds Few 4500 ft
Few 6000 ft
Dew Point 68 °F
Humidity 97%
Rainfall in
Snow Depth Not available.
6:05 AM 8:29 PM
Waning Crescent, 34% visible
METAR KIRK 280855Z AUTO 00000KT 10SM FEW045 FEW060 21/19 A2993 RMK AO2 SLP130 T02110194 56004
Pressure 29.92 in
Visibility 10.0 miles
Clouds Few 4500 ft
Few 6000 ft
Dew Point 68 °F
Humidity 97%
Rainfall in
Snow Depth Not available.
6:05 AM 8:29 PM
Waning Crescent, 34% visible
METAR KIRK 280855Z AUTO 00000KT 10SM FEW045 FEW060 21/19 A2993 RMK AO2 SLP130 T02110194 56004

10-Day Weather Forecast

Almanac

Astronomy

Jul. 28, 2016 Rise Set
Actual Time
Civil Twilight
Nautical Twilight
Astronomical Twilight
Moon
Length of Visible Light
Length of Day
Tomorrow will be .
, % of the Moon is Illuminated

Today's Extremes

State Highs State Lows

Community

WunderPhotos

Upload Photos

1,928,070 photos uploaded!

WunderBlog® & News

Nearby

Air Quality

  Air Quality AQ Index Pollutant
Not available.

Snow Depth

Station Depth Elevation

Earthquake Activity

City Distance Mag. Time & Date
Minimum magnitude displayed is 2.5.

Coastal Water Temperatures

Place Temperature

Stations

Nearby Weather Stations

Station Location Temp. Windchill Dew Point Humidity Wind Precip. Elev Updated Type
                   

Watches & Warnings

There are currently no watches in effect.